sensor_id;sensor_type;location;lat;lon;timestamp;pressure;altitude;pressure_sealevel;temperature;humidity
73024;BME280;61199;47.526;8.538;2023-01-09T00:01:26;95009.59;;;7.93;87.87
73024;BME280;61199;47.526;8.538;2023-01-09T00:03:53;95019.69;;;7.88;88.55
73024;BME280;61199;47.526;8.538;2023-01-09T00:06:20;95012.53;;;7.90;88.21
73024;BME280;61199;47.526;8.538;2023-01-09T00:08:46;95012.69;;;7.88;88.46
73024;BME280;61199;47.526;8.538;2023-01-09T00:11:13;95010.59;;;7.92;88.32
73024;BME280;61199;47.526;8.538;2023-01-09T00:13:39;95007.97;;;7.92;88.34
73024;BME280;61199;47.526;8.538;2023-01-09T00:16:06;95009.28;;;7.88;88.82
73024;BME280;61199;47.526;8.538;2023-01-09T00:18:34;95008.28;;;7.89;88.53
73024;BME280;61199;47.526;8.538;2023-01-09T00:21:05;95005.03;;;7.87;88.94
73024;BME280;61199;47.526;8.538;2023-01-09T00:23:33;95004.78;;;7.80;88.86
73024;BME280;61199;47.526;8.538;2023-01-09T00:26:04;95008.56;;;7.78;89.40
73024;BME280;61199;47.526;8.538;2023-01-09T00:28:31;94997.28;;;7.77;89.54
73024;BME280;61199;47.526;8.538;2023-01-09T00:30:59;94994.59;;;7.87;89.38
73024;BME280;61199;47.526;8.538;2023-01-09T00:33:32;94982.38;;;7.87;89.14
73024;BME280;61199;47.526;8.538;2023-01-09T00:35:58;94983.31;;;8.04;88.61
73024;BME280;61199;47.526;8.538;2023-01-09T00:38:25;94991.53;;;7.91;88.17
73024;BME280;61199;47.526;8.538;2023-01-09T00:40:51;94983.50;;;7.85;88.66
73024;BME280;61199;47.526;8.538;2023-01-09T00:43:20;94982.41;;;7.95;88.34
73024;BME280;61199;47.526;8.538;2023-01-09T00:45:47;94985.63;;;7.89;88.23
73024;BME280;61199;47.526;8.538;2023-01-09T00:48:17;94989.69;;;7.84;88.31
73024;BME280;61199;47.526;8.538;2023-01-09T00:50:50;94986.94;;;7.85;88.65
73024;BME280;61199;47.526;8.538;2023-01-09T00:53:20;94978.97;;;7.87;88.41
73024;BME280;61199;47.526;8.538;2023-01-09T00:55:48;94960.72;;;7.87;88.44
73024;BME280;61199;47.526;8.538;2023-01-09T00:58:17;94974.88;;;7.84;88.32
73024;BME280;61199;47.526;8.538;2023-01-09T01:00:43;94973.03;;;7.77;88.84
73024;BME280;61199;47.526;8.538;2023-01-09T01:03:10;94982.63;;;7.76;89.00
73024;BME280;61199;47.526;8.538;2023-01-09T01:05:36;94989.94;;;7.73;88.52
73024;BME280;61199;47.526;8.538;2023-01-09T01:08:21;94998.88;;;7.70;88.98
73024;BME280;61199;47.526;8.538;2023-01-09T01:10:47;94995.59;;;7.68;89.20
73024;BME280;61199;47.526;8.538;2023-01-09T01:13:14;94991.09;;;7.78;88.82
73024;BME280;61199;47.526;8.538;2023-01-09T01:15:42;95001.38;;;7.80;89.00
73024;BME280;61199;47.526;8.538;2023-01-09T01:18:10;95004.34;;;7.85;88.56
73024;BME280;61199;47.526;8.538;2023-01-09T01:20:41;95002.56;;;7.85;88.15
73024;BME280;61199;47.526;8.538;2023-01-09T01:23:08;95007.00;;;7.93;88.41
73024;BME280;61199;47.526;8.538;2023-01-09T01:25:36;95005.63;;;7.81;88.33
73024;BME280;61199;47.526;8.538;2023-01-09T01:28:04;94999.59;;;7.80;88.43
73024;BME280;61199;47.526;8.538;2023-01-09T01:30:30;95007.25;;;7.82;87.81
73024;BME280;61199;47.526;8.538;2023-01-09T01:32:57;95005.63;;;7.81;86.91
73024;BME280;61199;47.526;8.538;2023-01-09T01:35:23;95013.81;;;7.86;86.90
73024;BME280;61199;47.526;8.538;2023-01-09T01:37:51;95027.50;;;7.88;86.38
73024;BME280;61199;47.526;8.538;2023-01-09T01:40:18;95028.13;;;7.82;85.70
73024;BME280;61199;47.526;8.538;2023-01-09T01:42:49;95030.47;;;7.93;85.63
73024;BME280;61199;47.526;8.538;2023-01-09T01:45:21;95037.31;;;7.94;85.88
73024;BME280;61199;47.526;8.538;2023-01-09T01:47:53;95042.94;;;7.81;85.71
73024;BME280;61199;47.526;8.538;2023-01-09T01:53:18;95056.44;;;7.77;84.85
73024;BME280;61199;47.526;8.538;2023-01-09T01:56:36;95066.22;;;7.83;85.27
73024;BME280;61199;47.526;8.538;2023-01-09T01:58:42;95067.34;;;7.80;85.09
73024;BME280;61199;47.526;8.538;2023-01-09T02:01:10;95058.88;;;7.78;85.79
73024;BME280;61199;47.526;8.538;2023-01-09T02:03:38;95046.56;;;7.88;85.26
73024;BME280;61199;47.526;8.538;2023-01-09T02:06:07;95051.88;;;7.61;86.11
73024;BME280;61199;47.526;8.538;2023-01-09T02:08:34;95060.28;;;7.73;85.84
73024;BME280;61199;47.526;8.538;2023-01-09T02:11:03;95055.97;;;7.64;86.52
73024;BME280;61199;47.526;8.538;2023-01-09T02:13:31;95067.00;;;7.75;86.41
73024;BME280;61199;47.526;8.538;2023-01-09T02:27:31;95062.03;;;7.64;84.33
73024;BME280;61199;47.526;8.538;2023-01-09T02:30:09;95052.28;;;7.66;84.39
73024;BME280;61199;47.526;8.538;2023-01-09T02:38:19;95097.91;;;7.35;84.51
73024;BME280;61199;47.526;8.538;2023-01-09T02:40:53;95098.78;;;7.26;84.48
73024;BME280;61199;47.526;8.538;2023-01-09T02:43:22;95095.34;;;7.26;86.12
73024;BME280;61199;47.526;8.538;2023-01-09T02:45:48;95100.47;;;7.18;85.57
73024;BME280;61199;47.526;8.538;2023-01-09T02:48:15;95099.72;;;7.08;85.52
73024;BME280;61199;47.526;8.538;2023-01-09T02:50:56;95098.09;;;7.07;85.83
73024;BME280;61199;47.526;8.538;2023-01-09T03:01:51;95160.84;;;7.04;87.13
73024;BME280;61199;47.526;8.538;2023-01-09T03:04:29;95173.16;;;7.02;86.17
73024;BME280;61199;47.526;8.538;2023-01-09T03:07:12;95184.44;;;6.93;86.30
73024;BME280;61199;47.526;8.538;2023-01-09T03:09:45;95203.63;;;6.92;83.67
73024;BME280;61199;47.526;8.538;2023-01-09T03:12:16;95216.25;;;6.87;82.88
73024;BME280;61199;47.526;8.538;2023-01-09T03:14:48;95216.09;;;6.88;83.40
73024;BME280;61199;47.526;8.538;2023-01-09T03:17:26;95226.97;;;6.74;83.39
73024;BME280;61199;47.526;8.538;2023-01-09T03:19:54;95244.94;;;6.68;84.78
73024;BME280;61199;47.526;8.538;2023-01-09T03:22:22;95245.75;;;6.68;85.24
73024;BME280;61199;47.526;8.538;2023-01-09T03:24:49;95237.94;;;6.68;85.69
73024;BME280;61199;47.526;8.538;2023-01-09T03:27:15;95245.06;;;6.76;85.06
73024;BME280;61199;47.526;8.538;2023-01-09T03:29:41;95260.13;;;6.72;83.61
73024;BME280;61199;47.526;8.538;2023-01-09T03:32:08;95251.09;;;6.57;84.59
73024;BME280;61199;47.526;8.538;2023-01-09T03:34:34;95254.09;;;6.72;84.66
73024;BME280;61199;47.526;8.538;2023-01-09T03:37:00;95271.63;;;6.70;84.30
73024;BME280;61199;47.526;8.538;2023-01-09T03:39:28;95257.34;;;6.74;84.30
73024;BME280;61199;47.526;8.538;2023-01-09T03:41:54;95260.50;;;6.77;84.11
73024;BME280;61199;47.526;8.538;2023-01-09T03:44:20;95281.47;;;6.66;84.39
73024;BME280;61199;47.526;8.538;2023-01-09T03:46:47;95279.44;;;6.70;83.39
73024;BME280;61199;47.526;8.538;2023-01-09T03:49:15;95297.94;;;6.67;83.86
73024;BME280;61199;47.526;8.538;2023-01-09T03:51:42;95292.16;;;6.73;84.23
73024;BME280;61199;47.526;8.538;2023-01-09T03:54:09;95294.91;;;6.62;84.20
73024;BME280;61199;47.526;8.538;2023-01-09T03:56:35;95304.63;;;6.69;84.24
73024;BME280;61199;47.526;8.538;2023-01-09T03:59:02;95308.19;;;6.59;84.11
73024;BME280;61199;47.526;8.538;2023-01-09T04:01:28;95315.44;;;6.55;83.35
73024;BME280;61199;47.526;8.538;2023-01-09T04:03:54;95302.56;;;6.54;83.53
73024;BME280;61199;47.526;8.538;2023-01-09T04:06:21;95304.78;;;6.49;82.87
73024;BME280;61199;47.526;8.538;2023-01-09T04:08:47;95317.66;;;6.41;83.71
73024;BME280;61199;47.526;8.538;2023-01-09T04:11:14;95314.22;;;6.50;83.34
73024;BME280;61199;47.526;8.538;2023-01-09T04:13:42;95310.78;;;6.49;80.94
73024;BME280;61199;47.526;8.538;2023-01-09T04:16:10;95309.03;;;6.50;79.59
73024;BME280;61199;47.526;8.538;2023-01-09T04:18:37;95318.47;;;6.51;80.00
73024;BME280;61199;47.526;8.538;2023-01-09T04:21:03;95326.81;;;6.45;80.91
73024;BME280;61199;47.526;8.538;2023-01-09T04:23:29;95338.19;;;6.34;80.23
73024;BME280;61199;47.526;8.538;2023-01-09T04:25:56;95354.88;;;6.32;79.69
73024;BME280;61199;47.526;8.538;2023-01-09T04:28:22;95365.91;;;6.24;80.10
73024;BME280;61199;47.526;8.538;2023-01-09T04:30:49;95342.13;;;6.29;79.91
73024;BME280;61199;47.526;8.538;2023-01-09T04:33:15;95361.72;;;6.33;79.63
73024;BME280;61199;47.526;8.538;2023-01-09T04:35:41;95372.38;;;6.30;78.13
73024;BME280;61199;47.526;8.538;2023-01-09T04:38:08;95389.34;;;6.34;77.75
73024;BME280;61199;47.526;8.538;2023-01-09T04:40:34;95410.16;;;6.34;78.21
73024;BME280;61199;47.526;8.538;2023-01-09T04:43:00;95414.53;;;6.43;78.55
73024;BME280;61199;47.526;8.538;2023-01-09T04:45:27;95426.03;;;6.31;78.02
73024;BME280;61199;47.526;8.538;2023-01-09T04:47:53;95429.03;;;6.26;77.90
73024;BME280;61199;47.526;8.538;2023-01-09T04:50:19;95429.16;;;6.25;78.01
73024;BME280;61199;47.526;8.538;2023-01-09T04:52:46;95430.09;;;6.24;78.49
73024;BME280;61199;47.526;8.538;2023-01-09T04:55:12;95438.19;;;6.21;79.00
73024;BME280;61199;47.526;8.538;2023-01-09T04:57:39;95449.00;;;6.26;78.35
73024;BME280;61199;47.526;8.538;2023-01-09T05:00:06;95464.81;;;6.13;78.26
73024;BME280;61199;47.526;8.538;2023-01-09T05:02:35;95456.78;;;6.16;78.43
73024;BME280;61199;47.526;8.538;2023-01-09T05:05:02;95456.91;;;6.24;77.41
73024;BME280;61199;47.526;8.538;2023-01-09T05:07:29;95471.09;;;6.11;77.72
73024;BME280;61199;47.526;8.538;2023-01-09T05:09:55;95464.09;;;6.02;78.17
73024;BME280;61199;47.526;8.538;2023-01-09T05:12:22;95473.00;;;6.09;77.95
73024;BME280;61199;47.526;8.538;2023-01-09T05:14:48;95462.31;;;6.02;76.96
73024;BME280;61199;47.526;8.538;2023-01-09T05:17:14;95475.59;;;5.99;77.05
73024;BME280;61199;47.526;8.538;2023-01-09T05:19:40;95476.28;;;6.01;76.40
73024;BME280;61199;47.526;8.538;2023-01-09T05:22:07;95463.84;;;6.05;76.43
73024;BME280;61199;47.526;8.538;2023-01-09T05:24:34;95459.59;;;6.04;75.60
73024;BME280;61199;47.526;8.538;2023-01-09T05:27:00;95463.66;;;5.97;75.43
73024;BME280;61199;47.526;8.538;2023-01-09T05:29:27;95464.22;;;6.00;75.39
73024;BME280;61199;47.526;8.538;2023-01-09T05:31:54;95497.28;;;5.89;75.21
73024;BME280;61199;47.526;8.538;2023-01-09T05:34:20;95499.75;;;5.90;75.04
73024;BME280;61199;47.526;8.538;2023-01-09T05:36:47;95486.44;;;5.84;75.32
73024;BME280;61199;47.526;8.538;2023-01-09T05:39:13;95466.25;;;5.76;75.95
73024;BME280;61199;47.526;8.538;2023-01-09T05:41:40;95487.72;;;5.78;75.40
73024;BME280;61199;47.526;8.538;2023-01-09T05:44:06;95502.72;;;5.86;75.65
73024;BME280;61199;47.526;8.538;2023-01-09T05:46:33;95504.19;;;6.09;74.73
73024;BME280;61199;47.526;8.538;2023-01-09T05:48:59;95508.31;;;6.11;74.53
73024;BME280;61199;47.526;8.538;2023-01-09T05:51:25;95516.91;;;6.02;73.98
73024;BME280;61199;47.526;8.538;2023-01-09T05:53:52;95525.09;;;5.98;74.05
73024;BME280;61199;47.526;8.538;2023-01-09T05:56:18;95529.78;;;6.04;74.52
73024;BME280;61199;47.526;8.538;2023-01-09T05:58:45;95514.31;;;6.02;74.83
73024;BME280;61199;47.526;8.538;2023-01-09T06:01:11;95516.31;;;5.99;74.95
73024;BME280;61199;47.526;8.538;2023-01-09T06:03:37;95514.88;;;5.85;76.03
73024;BME280;61199;47.526;8.538;2023-01-09T06:06:04;95509.44;;;5.68;77.37
73024;BME280;61199;47.526;8.538;2023-01-09T06:08:30;95519.94;;;5.66;78.36
73024;BME280;61199;47.526;8.538;2023-01-09T06:10:57;95519.81;;;5.68;79.00
73024;BME280;61199;47.526;8.538;2023-01-09T06:13:23;95524.88;;;5.69;79.51
73024;BME280;61199;47.526;8.538;2023-01-09T06:15:49;95536.16;;;5.59;79.97
73024;BME280;61199;47.526;8.538;2023-01-09T06:18:16;95537.31;;;5.66;80.40
73024;BME280;61199;47.526;8.538;2023-01-09T06:20:45;95551.81;;;5.68;80.73
73024;BME280;61199;47.526;8.538;2023-01-09T06:23:12;95547.44;;;5.69;80.30
73024;BME280;61199;47.526;8.538;2023-01-09T06:25:39;95538.53;;;5.82;80.53
73024;BME280;61199;47.526;8.538;2023-01-09T06:28:05;95543.78;;;5.92;80.47
73024;BME280;61199;47.526;8.538;2023-01-09T06:30:32;95537.63;;;5.93;80.04
73024;BME280;61199;47.526;8.538;2023-01-09T06:32:59;95538.34;;;5.95;80.09
73024;BME280;61199;47.526;8.538;2023-01-09T06:35:25;95530.88;;;5.81;81.10
73024;BME280;61199;47.526;8.538;2023-01-09T06:37:51;95532.44;;;5.72;80.90
73024;BME280;61199;47.526;8.538;2023-01-09T06:40:18;95528.88;;;5.73;80.40
73024;BME280;61199;47.526;8.538;2023-01-09T06:42:47;95537.75;;;5.71;79.87
73024;BME280;61199;47.526;8.538;2023-01-09T06:45:14;95529.38;;;5.67;80.74
73024;BME280;61199;47.526;8.538;2023-01-09T06:47:41;95528.94;;;5.63;80.29
73024;BME280;61199;47.526;8.538;2023-01-09T06:50:08;95530.44;;;5.65;80.32
73024;BME280;61199;47.526;8.538;2023-01-09T06:52:36;95528.94;;;5.63;80.51
73024;BME280;61199;47.526;8.538;2023-01-09T06:55:02;95528.94;;;5.63;80.46
73024;BME280;61199;47.526;8.538;2023-01-09T06:57:29;95528.56;;;5.67;79.64
73024;BME280;61199;47.526;8.538;2023-01-09T06:59:55;95525.03;;;5.68;78.93
73024;BME280;61199;47.526;8.538;2023-01-09T07:02:22;95529.16;;;5.70;79.03
73024;BME280;61199;47.526;8.538;2023-01-09T07:04:49;95520.78;;;5.67;77.42
73024;BME280;61199;47.526;8.538;2023-01-09T07:07:15;95513.28;;;5.73;75.74
73024;BME280;61199;47.526;8.538;2023-01-09T07:09:43;95519.50;;;5.82;75.78
73024;BME280;61199;47.526;8.538;2023-01-09T07:12:09;95519.28;;;5.85;74.33
73024;BME280;61199;47.526;8.538;2023-01-09T07:14:36;95512.75;;;5.90;74.03
73024;BME280;61199;47.526;8.538;2023-01-09T07:17:02;95524.59;;;5.83;73.47
73024;BME280;61199;47.526;8.538;2023-01-09T07:19:29;95519.28;;;5.85;73.49
73024;BME280;61199;47.526;8.538;2023-01-09T07:21:55;95518.06;;;5.89;72.90
73024;BME280;61199;47.526;8.538;2023-01-09T07:24:21;95515.91;;;5.94;72.80
73024;BME280;61199;47.526;8.538;2023-01-09T07:26:48;95513.81;;;5.88;72.22
73024;BME280;61199;47.526;8.538;2023-01-09T07:29:14;95514.81;;;5.96;72.38
73024;BME280;61199;47.526;8.538;2023-01-09T07:31:40;95501.22;;;5.83;71.70
73024;BME280;61199;47.526;8.538;2023-01-09T07:34:07;95496.75;;;5.95;71.42
73024;BME280;61199;47.526;8.538;2023-01-09T07:36:33;95500.00;;;5.87;71.21
73024;BME280;61199;47.526;8.538;2023-01-09T07:38:59;95501.78;;;5.87;70.79
73024;BME280;61199;47.526;8.538;2023-01-09T07:41:26;95496.31;;;5.90;70.59
73024;BME280;61199;47.526;8.538;2023-01-09T07:43:52;95497.88;;;6.02;70.56
73024;BME280;61199;47.526;8.538;2023-01-09T07:46:19;95496.50;;;5.98;69.47
73024;BME280;61199;47.526;8.538;2023-01-09T07:48:45;95496.50;;;5.98;69.44
73024;BME280;61199;47.526;8.538;2023-01-09T07:51:11;95488.56;;;5.99;69.32
73024;BME280;61199;47.526;8.538;2023-01-09T07:53:38;95500.06;;;5.97;69.50
73024;BME280;61199;47.526;8.538;2023-01-09T07:56:05;95497.34;;;5.98;70.49
73024;BME280;61199;47.526;8.538;2023-01-09T07:58:31;95487.94;;;5.86;69.84
73024;BME280;61199;47.526;8.538;2023-01-09T08:00:58;95503.72;;;5.94;69.96
73024;BME280;61199;47.526;8.538;2023-01-09T08:03:24;95513.31;;;5.94;69.18
73024;BME280;61199;47.526;8.538;2023-01-09T08:05:52;95491.69;;;5.93;69.99
73024;BME280;61199;47.526;8.538;2023-01-09T08:08:18;95493.72;;;5.90;69.46
73024;BME280;61199;47.526;8.538;2023-01-09T08:10:44;95492.13;;;5.98;69.10
73024;BME280;61199;47.526;8.538;2023-01-09T08:13:11;95493.78;;;5.99;69.45
73024;BME280;61199;47.526;8.538;2023-01-09T08:15:37;95490.53;;;6.07;69.11
73024;BME280;61199;47.526;8.538;2023-01-09T08:18:04;95496.84;;;6.14;69.46
73024;BME280;61199;47.526;8.538;2023-01-09T08:20:30;95509.16;;;6.12;68.23
73024;BME280;61199;47.526;8.538;2023-01-09T08:22:57;95503.41;;;6.18;68.76
73024;BME280;61199;47.526;8.538;2023-01-09T08:25:23;95512.06;;;6.18;68.25
73024;BME280;61199;47.526;8.538;2023-01-09T08:27:50;95521.88;;;6.15;68.69
73024;BME280;61199;47.526;8.538;2023-01-09T08:30:17;95524.56;;;6.04;68.81
73024;BME280;61199;47.526;8.538;2023-01-09T08:32:48;95529.97;;;6.12;68.27
73024;BME280;61199;47.526;8.538;2023-01-09T08:35:15;95519.09;;;6.37;68.51
73024;BME280;61199;47.526;8.538;2023-01-09T08:37:48;95519.38;;;6.34;68.69
73024;BME280;61199;47.526;8.538;2023-01-09T08:40:16;95521.00;;;6.35;68.75
73024;BME280;61199;47.526;8.538;2023-01-09T08:42:43;95521.28;;;6.32;68.85
73024;BME280;61199;47.526;8.538;2023-01-09T08:45:28;95518.97;;;6.38;69.09
73024;BME280;61199;47.526;8.538;2023-01-09T08:48:14;95519.38;;;6.34;68.38
73024;BME280;61199;47.526;8.538;2023-01-09T08:50:42;95504.53;;;6.25;68.80
73024;BME280;61199;47.526;8.538;2023-01-09T08:53:09;95517.09;;;6.20;68.85
73024;BME280;61199;47.526;8.538;2023-01-09T08:55:36;95511.03;;;6.40;71.34
73024;BME280;61199;47.526;8.538;2023-01-09T08:58:02;95514.69;;;6.28;69.01
73024;BME280;61199;47.526;8.538;2023-01-09T09:00:28;95511.50;;;6.15;69.76
73024;BME280;61199;47.526;8.538;2023-01-09T09:02:57;95510.53;;;6.16;69.81
73024;BME280;61199;47.526;8.538;2023-01-09T09:05:25;95509.28;;;6.10;69.78
73024;BME280;61199;47.526;8.538;2023-01-09T09:07:53;95508.16;;;6.03;69.80
73024;BME280;61199;47.526;8.538;2023-01-09T09:10:22;95515.56;;;6.08;70.07
73024;BME280;61199;47.526;8.538;2023-01-09T09:12:50;95526.63;;;6.10;70.12
73024;BME280;61199;47.526;8.538;2023-01-09T09:15:17;95519.41;;;6.13;70.30
73024;BME280;61199;47.526;8.538;2023-01-09T09:17:51;95520.38;;;6.12;70.32
73024;BME280;61199;47.526;8.538;2023-01-09T09:20:21;95523.66;;;6.14;68.72
73024;BME280;61199;47.526;8.538;2023-01-09T09:22:48;95523.03;;;6.22;69.95
73024;BME280;61199;47.526;8.538;2023-01-09T09:25:15;95522.22;;;6.31;69.37
73024;BME280;61199;47.526;8.538;2023-01-09T09:27:41;95528.69;;;6.36;68.85
73024;BME280;61199;47.526;8.538;2023-01-09T09:30:10;95527.84;;;6.36;69.30
73024;BME280;61199;47.526;8.538;2023-01-09T09:32:37;95529.66;;;6.45;69.51
73024;BME280;61199;47.526;8.538;2023-01-09T09:35:04;95531.75;;;6.60;69.66
73024;BME280;61199;47.526;8.538;2023-01-09T09:37:31;95539.09;;;6.76;68.80
73024;BME280;61199;47.526;8.538;2023-01-09T09:39:57;95537.72;;;6.91;67.71
73024;BME280;61199;47.526;8.538;2023-01-09T09:53:47;95541.41;;;6.79;67.88
73024;BME280;61199;47.526;8.538;2023-01-09T09:56:17;95534.41;;;6.70;67.20
73024;BME280;61199;47.526;8.538;2023-01-09T09:58:56;95529.59;;;6.65;66.55
73024;BME280;61199;47.526;8.538;2023-01-09T10:01:36;95535.59;;;6.66;66.83
73024;BME280;61199;47.526;8.538;2023-01-09T10:04:09;95525.50;;;6.72;67.30
73024;BME280;61199;47.526;8.538;2023-01-09T10:06:42;95524.16;;;6.78;66.80
73024;BME280;61199;47.526;8.538;2023-01-09T10:11:46;95512.25;;;6.85;65.78
73024;BME280;61199;47.526;8.538;2023-01-09T10:14:14;95501.97;;;6.83;65.53
73024;BME280;61199;47.526;8.538;2023-01-09T10:17:09;95502.94;;;6.92;66.94
73024;BME280;61199;47.526;8.538;2023-01-09T10:22:39;95509.13;;;7.10;65.74
73024;BME280;61199;47.526;8.538;2023-01-09T10:25:21;95494.59;;;7.17;65.82
73024;BME280;61199;47.526;8.538;2023-01-09T10:33:36;95499.38;;;7.02;66.03
73024;BME280;61199;47.526;8.538;2023-01-09T10:38:55;95498.97;;;7.07;66.33
73024;BME280;61199;47.526;8.538;2023-01-09T10:44:06;95491.19;;;7.35;66.65
73024;BME280;61199;47.526;8.538;2023-01-09T10:46:41;95503.22;;;7.55;64.81
73024;BME280;61199;47.526;8.538;2023-01-09T10:49:12;95492.09;;;7.63;64.49
73024;BME280;61199;47.526;8.538;2023-01-09T10:51:49;95488.28;;;7.57;63.75
73024;BME280;61199;47.526;8.538;2023-01-09T10:54:17;95516.50;;;7.52;64.39
73024;BME280;61199;47.526;8.538;2023-01-09T10:56:58;95517.50;;;7.42;63.86
73024;BME280;61199;47.526;8.538;2023-01-09T10:59:27;95496.81;;;7.31;64.40
73024;BME280;61199;47.526;8.538;2023-01-09T11:01:55;95509.13;;;7.29;65.18
73024;BME280;61199;47.526;8.538;2023-01-09T11:04:28;95494.88;;;7.33;66.05
73024;BME280;61199;47.526;8.538;2023-01-09T11:06:58;95493.09;;;7.33;66.56
73024;BME280;61199;47.526;8.538;2023-01-09T11:09:25;95497.19;;;7.36;66.26
73024;BME280;61199;47.526;8.538;2023-01-09T11:11:51;95505.84;;;7.27;66.92
73024;BME280;61199;47.526;8.538;2023-01-09T11:14:25;95489.09;;;7.01;66.40
73024;BME280;61199;47.526;8.538;2023-01-09T11:17:02;95480.91;;;7.15;67.76
73024;BME280;61199;47.526;8.538;2023-01-09T11:19:30;95471.03;;;7.09;67.70
73024;BME280;61199;47.526;8.538;2023-01-09T11:22:15;95472.94;;;7.07;67.76
73024;BME280;61199;47.526;8.538;2023-01-09T11:24:42;95468.28;;;7.01;67.05
73024;BME280;61199;47.526;8.538;2023-01-09T11:29:42;95466.38;;;7.12;66.75
73024;BME280;61199;47.526;8.538;2023-01-09T11:32:22;95465.41;;;7.13;66.82
73024;BME280;61199;47.526;8.538;2023-01-09T11:34:49;95468.41;;;7.09;66.49
73024;BME280;61199;47.526;8.538;2023-01-09T11:37:25;95466.38;;;7.22;66.83
73024;BME280;61199;47.526;8.538;2023-01-09T11:39:53;95511.59;;;7.21;66.84
73024;BME280;61199;47.526;8.538;2023-01-09T11:42:23;95517.19;;;6.97;67.90
73024;BME280;61199;47.526;8.538;2023-01-09T11:45:29;95497.44;;;6.85;70.57
73024;BME280;61199;47.526;8.538;2023-01-09T11:47:57;95482.78;;;6.84;72.11
73024;BME280;61199;47.526;8.538;2023-01-09T11:50:26;95498.38;;;6.75;72.63
73024;BME280;61199;47.526;8.538;2023-01-09T11:53:15;95501.09;;;6.64;74.79
73024;BME280;61199;47.526;8.538;2023-01-09T11:55:44;95510.66;;;6.54;74.56
73024;BME280;61199;47.526;8.538;2023-01-09T11:58:16;95514.25;;;6.62;75.45
73024;BME280;61199;47.526;8.538;2023-01-09T12:06:19;95520.50;;;6.41;75.10
73024;BME280;61199;47.526;8.538;2023-01-09T12:12:02;95516.44;;;6.57;75.79
73024;BME280;61199;47.526;8.538;2023-01-09T12:14:48;95524.13;;;6.68;74.27
73024;BME280;61199;47.526;8.538;2023-01-09T12:17:23;95522.03;;;6.53;74.03
73024;BME280;61199;47.526;8.538;2023-01-09T12:20:12;95543.63;;;6.44;75.70
73024;BME280;61199;47.526;8.538;2023-01-09T12:22:59;95547.59;;;6.48;74.59
73024;BME280;61199;47.526;8.538;2023-01-09T12:25:36;95522.97;;;6.52;74.95
73024;BME280;61199;47.526;8.538;2023-01-09T12:31:51;95524.00;;;6.30;74.65
73024;BME280;61199;47.526;8.538;2023-01-09T12:36:39;95517.53;;;6.25;76.15
73024;BME280;61199;47.526;8.538;2023-01-09T12:47:45;95543.28;;;6.58;74.53
73024;BME280;61199;47.526;8.538;2023-01-09T12:52:43;95531.06;;;6.49;75.36
73024;BME280;61199;47.526;8.538;2023-01-09T12:55:18;95530.28;;;6.58;75.18
73024;BME280;61199;47.526;8.538;2023-01-09T12:57:48;95520.56;;;6.60;74.34
73024;BME280;61199;47.526;8.538;2023-01-09T13:00:39;95526.94;;;6.46;74.82
73024;BME280;61199;47.526;8.538;2023-01-09T13:03:27;95542.53;;;6.46;74.99
73024;BME280;61199;47.526;8.538;2023-01-09T13:05:57;95515.56;;;6.47;74.86
73024;BME280;61199;47.526;8.538;2023-01-09T13:08:31;95520.97;;;6.65;75.21
73024;BME280;61199;47.526;8.538;2023-01-09T13:11:12;95552.00;;;6.57;74.79
73024;BME280;61199;47.526;8.538;2023-01-09T13:14:02;95520.78;;;6.47;74.79
73024;BME280;61199;47.526;8.538;2023-01-09T13:16:34;95530.91;;;6.50;74.68
73024;BME280;61199;47.526;8.538;2023-01-09T13:21:33;95525.34;;;6.74;74.13
73024;BME280;61199;47.526;8.538;2023-01-09T13:24:12;95516.50;;;6.86;73.54
73024;BME280;61199;47.526;8.538;2023-01-09T13:27:03;95511.44;;;6.94;72.43
73024;BME280;61199;47.526;8.538;2023-01-09T13:29:36;95515.69;;;7.04;72.68
73024;BME280;61199;47.526;8.538;2023-01-09T13:35:11;95515.41;;;7.55;70.17
73024;BME280;61199;47.526;8.538;2023-01-09T13:37:39;95517.34;;;7.43;69.84
73024;BME280;61199;47.526;8.538;2023-01-09T13:43:05;95514.88;;;7.61;69.79
73024;BME280;61199;47.526;8.538;2023-01-09T13:45:35;95520.06;;;7.70;68.91
73024;BME280;61199;47.526;8.538;2023-01-09T13:50:44;95528.72;;;7.52;68.54
73024;BME280;61199;47.526;8.538;2023-01-09T14:00:52;95539.56;;;7.66;67.20
73024;BME280;61199;47.526;8.538;2023-01-09T14:03:31;95522.81;;;7.69;67.18
73024;BME280;61199;47.526;8.538;2023-01-09T14:08:29;95543.56;;;8.16;66.78
73024;BME280;61199;47.526;8.538;2023-01-09T14:10:59;95529.31;;;8.11;66.64
73024;BME280;61199;47.526;8.538;2023-01-09T14:16:14;95534.19;;;7.87;66.62
73024;BME280;61199;47.526;8.538;2023-01-09T14:21:22;95542.25;;;7.84;68.05
73024;BME280;61199;47.526;8.538;2023-01-09T14:23:58;95543.09;;;7.75;67.83
73024;BME280;61199;47.526;8.538;2023-01-09T14:26:54;95545.66;;;7.94;67.51
73024;BME280;61199;47.526;8.538;2023-01-09T14:35:33;95564.25;;;7.53;67.56
73024;BME280;61199;47.526;8.538;2023-01-09T14:37:34;95563.84;;;7.57;68.21
73024;BME280;61199;47.526;8.538;2023-01-09T14:40:05;95578.22;;;7.42;68.32
73024;BME280;61199;47.526;8.538;2023-01-09T14:42:33;95574.66;;;7.34;68.75
73024;BME280;61199;47.526;8.538;2023-01-09T14:45:04;95586.13;;;7.03;69.05
73024;BME280;61199;47.526;8.538;2023-01-09T14:47:44;95605.00;;;6.95;70.38
73024;BME280;61199;47.526;8.538;2023-01-09T14:50:28;95602.56;;;6.94;70.82
73024;BME280;61199;47.526;8.538;2023-01-09T14:53:04;95588.31;;;6.98;70.69
73024;BME280;61199;47.526;8.538;2023-01-09T14:55:49;95605.00;;;6.86;71.32
73024;BME280;61199;47.526;8.538;2023-01-09T14:58:24;95608.78;;;6.82;71.41
73024;BME280;61199;47.526;8.538;2023-01-09T15:01:12;95604.44;;;6.82;70.95
73024;BME280;61199;47.526;8.538;2023-01-09T15:03:47;95611.28;;;6.93;70.89
73024;BME280;61199;47.526;8.538;2023-01-09T15:06:23;95618.13;;;6.84;71.21
73024;BME280;61199;47.526;8.538;2023-01-09T15:09:31;95620.94;;;6.72;71.42
73024;BME280;61199;47.526;8.538;2023-01-09T15:12:02;95647.25;;;6.69;71.52
73024;BME280;61199;47.526;8.538;2023-01-09T15:14:33;95632.34;;;6.50;72.02
73024;BME280;61199;47.526;8.538;2023-01-09T15:17:01;95632.16;;;6.42;71.82
73024;BME280;61199;47.526;8.538;2023-01-09T15:19:29;95639.59;;;6.47;71.62
73024;BME280;61199;47.526;8.538;2023-01-09T15:21:59;95645.81;;;6.55;71.54